JAL2009 RJOO-RJCC
Flight info
| Callsign | JAL2009 |
|---|---|
| Flight time | 1h 23m |
| Altitude | 37000 |
| Route | MINAC GUJYO Y13 SIRAO Y139 NAVER |
| Aircraft | B738/M-SDE2E3FGHIRWXY/LB1 |
Departure
| Time | 2026-05-01 09:37 |
|---|---|
| Airport | Osaka Itami International Airport (RJOO) |
Arrival
| Time | 2026-05-01 11:01 |
|---|---|
| Airport | New Chitose Airport (RJCC) |
| Time | Latitude | Longitude | Altitude | Speed | Heading |
|---|---|---|---|---|---|
| 2026-05-01 09:25 | 34.79050 | 135.43867 | 49 ft | 0 kts | 162° |
| 2026-05-01 09:33 | 34.79045 | 135.43869 | 47 ft | 2 kts | 162° |
| 2026-05-01 09:33 | 34.79020 | 135.43870 | 49 ft | 5 kts | 189° |
| 2026-05-01 09:33 | 34.78907 | 135.43883 | 48 ft | 12 kts | 165° |
| 2026-05-01 09:34 | 34.78822 | 135.43915 | 48 ft | 14 kts | 153° |
| 2026-05-01 09:34 | 34.78742 | 135.44002 | 48 ft | 17 kts | 135° |
| 2026-05-01 09:34 | 34.78551 | 135.44231 | 46 ft | 22 kts | 135° |
| 2026-05-01 09:35 | 34.78426 | 135.44336 | 49 ft | 23 kts | 174° |
| 2026-05-01 09:35 | 34.78162 | 135.44358 | 46 ft | 21 kts | 144° |
| 2026-05-01 09:35 | 34.78051 | 135.44489 | 49 ft | 23 kts | 135° |
| 2026-05-01 09:36 | 34.77932 | 135.44634 | 46 ft | 25 kts | 135° |
| 2026-05-01 09:36 | 34.77803 | 135.44790 | 46 ft | 27 kts | 135° |
| 2026-05-01 09:36 | 34.77654 | 135.44934 | 47 ft | 28 kts | 152° |
| 2026-05-01 09:36 | 34.77470 | 135.45015 | 50 ft | 28 kts | 194° |
| 2026-05-01 09:37 | 34.77479 | 135.44858 | 49 ft | 28 kts | 309° |
| 2026-05-01 09:37 | 34.78425 | 135.43703 | 50 ft | 157 kts | 310° |
| 2026-05-01 09:37 | 34.79218 | 135.42726 | 674 ft | 162 kts | 309° |
| 2026-05-01 09:38 | 34.79128 | 135.40748 | 2486 ft | 141 kts | 234° |
| 2026-05-01 09:38 | 34.78841 | 135.39582 | 2748 ft | 162 kts | 281° |
| 2026-05-01 09:38 | 34.79020 | 135.38134 | 2949 ft | 186 kts | 261° |
| 2026-05-01 09:39 | 34.76694 | 135.36299 | 3463 ft | 258 kts | 183° |
| 2026-05-01 09:39 | 34.74916 | 135.37086 | 4021 ft | 289 kts | 149° |
| 2026-05-01 09:39 | 34.73639 | 135.39023 | 4832 ft | 304 kts | 114° |
| 2026-05-01 09:40 | 34.73344 | 135.41560 | 5658 ft | 305 kts | 79° |
| 2026-05-01 09:40 | 34.75079 | 135.46191 | 7169 ft | 305 kts | 59° |
| 2026-05-01 09:40 | 34.76008 | 135.48489 | 7935 ft | 307 kts | 59° |
| 2026-05-01 09:41 | 34.76962 | 135.50830 | 8724 ft | 310 kts | 59° |
| 2026-05-01 09:41 | 34.78895 | 135.55598 | 10034 ft | 324 kts | 66° |
| 2026-05-01 09:41 | 34.79317 | 135.58381 | 10200 ft | 352 kts | 88° |
| 2026-05-01 09:42 | 34.79215 | 135.61449 | 10395 ft | 373 kts | 93° |
| 2026-05-01 09:42 | 34.79030 | 135.64666 | 10795 ft | 385 kts | 93° |
| 2026-05-01 09:42 | 34.78706 | 135.71257 | 12136 ft | 394 kts | 91° |
| 2026-05-01 09:43 | 34.80050 | 135.77635 | 13481 ft | 397 kts | 65° |
| 2026-05-01 09:43 | 34.81080 | 135.80776 | 14105 ft | 401 kts | 65° |
| 2026-05-01 09:43 | 34.82109 | 135.83963 | 14786 ft | 405 kts | 65° |
| 2026-05-01 09:44 | 34.84135 | 135.90410 | 16139 ft | 413 kts | 65° |
| 2026-05-01 09:44 | 34.85153 | 135.93705 | 16813 ft | 416 kts | 65° |
| 2026-05-01 09:44 | 34.86175 | 135.97033 | 17469 ft | 421 kts | 64° |
| 2026-05-01 09:45 | 34.87206 | 136.00395 | 18075 ft | 426 kts | 64° |
| 2026-05-01 09:45 | 34.89292 | 136.07214 | 19219 ft | 432 kts | 64° |
| 2026-05-01 09:45 | 34.90333 | 136.10619 | 19756 ft | 435 kts | 64° |
| 2026-05-01 09:46 | 34.91393 | 136.14085 | 20291 ft | 438 kts | 63° |
| 2026-05-01 09:46 | 34.92814 | 136.17335 | 20763 ft | 430 kts | 46° |
| 2026-05-01 09:46 | 34.94888 | 136.19860 | 21293 ft | 418 kts | 30° |
| 2026-05-01 09:46 | 34.97220 | 136.21991 | 21846 ft | 419 kts | 28° |
| 2026-05-01 09:47 | 34.99590 | 136.24091 | 22325 ft | 423 kts | 28° |
| 2026-05-01 09:47 | 35.01992 | 136.26214 | 22808 ft | 427 kts | 28° |
| 2026-05-01 09:47 | 35.04375 | 136.28340 | 23270 ft | 431 kts | 28° |
| 2026-05-01 09:47 | 35.06800 | 136.30526 | 23669 ft | 434 kts | 29° |
| 2026-05-01 09:48 | 35.09234 | 136.32739 | 24073 ft | 438 kts | 30° |
| 2026-05-01 09:48 | 35.11679 | 136.34972 | 24472 ft | 440 kts | 30° |
| 2026-05-01 09:48 | 35.14143 | 136.37232 | 24806 ft | 444 kts | 30° |
| 2026-05-01 09:48 | 35.16629 | 136.39511 | 25165 ft | 448 kts | 30° |
| 2026-05-01 09:49 | 35.19133 | 136.41807 | 25532 ft | 451 kts | 31° |
| 2026-05-01 09:49 | 35.21621 | 136.44095 | 25838 ft | 454 kts | 31° |
| 2026-05-01 09:49 | 35.24161 | 136.46428 | 26152 ft | 457 kts | 31° |
| 2026-05-01 09:49 | 35.26723 | 136.48782 | 26488 ft | 461 kts | 31° |
| 2026-05-01 09:50 | 35.29301 | 136.51153 | 26829 ft | 464 kts | 32° |
| 2026-05-01 09:50 | 35.31860 | 136.53510 | 27149 ft | 467 kts | 32° |
| 2026-05-01 09:50 | 35.34481 | 136.55926 | 27443 ft | 470 kts | 32° |
| 2026-05-01 09:50 | 35.37107 | 136.58346 | 27716 ft | 474 kts | 32° |
| 2026-05-01 09:51 | 35.39721 | 136.60760 | 27988 ft | 477 kts | 32° |
| 2026-05-01 09:51 | 35.42382 | 136.63220 | 28266 ft | 480 kts | 32° |
| 2026-05-01 09:51 | 35.45057 | 136.65696 | 28547 ft | 482 kts | 32° |
| 2026-05-01 09:51 | 35.47746 | 136.68188 | 28807 ft | 485 kts | 33° |
| 2026-05-01 09:52 | 35.50450 | 136.70697 | 29062 ft | 488 kts | 33° |
| 2026-05-01 09:52 | 35.53162 | 136.73216 | 29311 ft | 490 kts | 33° |
| 2026-05-01 09:52 | 35.55900 | 136.75760 | 29565 ft | 492 kts | 33° |
| 2026-05-01 09:52 | 35.58601 | 136.78274 | 29839 ft | 492 kts | 33° |
| 2026-05-01 09:53 | 35.61339 | 136.80825 | 30158 ft | 491 kts | 34° |
| 2026-05-01 09:53 | 35.64059 | 136.83362 | 30470 ft | 490 kts | 34° |
| 2026-05-01 09:53 | 35.66777 | 136.85898 | 30742 ft | 490 kts | 34° |
| 2026-05-01 09:53 | 35.69496 | 136.88435 | 30976 ft | 490 kts | 34° |
| 2026-05-01 09:54 | 35.72190 | 136.90950 | 31218 ft | 491 kts | 34° |
| 2026-05-01 09:54 | 35.74912 | 136.93495 | 31490 ft | 491 kts | 35° |
| 2026-05-01 09:54 | 35.77630 | 136.96039 | 31763 ft | 491 kts | 35° |
| 2026-05-01 09:54 | 35.80353 | 136.98590 | 32028 ft | 491 kts | 35° |
| 2026-05-01 09:55 | 35.83080 | 137.01147 | 32276 ft | 492 kts | 35° |
| 2026-05-01 09:55 | 35.85807 | 137.03705 | 32488 ft | 493 kts | 35° |
| 2026-05-01 09:55 | 35.88545 | 137.06277 | 32693 ft | 494 kts | 35° |
| 2026-05-01 09:55 | 35.91284 | 137.08851 | 32942 ft | 494 kts | 35° |
| 2026-05-01 09:56 | 35.93992 | 137.11399 | 33183 ft | 495 kts | 36° |
| 2026-05-01 09:56 | 35.96738 | 137.13986 | 33418 ft | 495 kts | 36° |
| 2026-05-01 09:56 | 35.99487 | 137.16577 | 33668 ft | 495 kts | 36° |
| 2026-05-01 09:56 | 36.02201 | 137.19137 | 33886 ft | 495 kts | 36° |
| 2026-05-01 09:57 | 36.04950 | 137.21733 | 34081 ft | 495 kts | 36° |
| 2026-05-01 09:57 | 36.07694 | 137.24326 | 34298 ft | 495 kts | 36° |
| 2026-05-01 09:57 | 36.10434 | 137.26919 | 34522 ft | 495 kts | 36° |
| 2026-05-01 09:57 | 36.13127 | 137.29469 | 34749 ft | 494 kts | 36° |
| 2026-05-01 09:58 | 36.15859 | 137.32058 | 34975 ft | 493 kts | 36° |
| 2026-05-01 09:58 | 36.18594 | 137.34652 | 35193 ft | 493 kts | 36° |
| 2026-05-01 09:58 | 36.21317 | 137.37236 | 35396 ft | 493 kts | 36° |
| 2026-05-01 09:58 | 36.24011 | 137.39796 | 35577 ft | 493 kts | 36° |
| 2026-05-01 09:59 | 36.26741 | 137.42391 | 35702 ft | 495 kts | 36° |
| 2026-05-01 09:59 | 36.29487 | 137.45005 | 35795 ft | 498 kts | 36° |
| 2026-05-01 09:59 | 36.32239 | 137.47627 | 35897 ft | 500 kts | 36° |
| 2026-05-01 09:59 | 36.34997 | 137.50258 | 36040 ft | 501 kts | 37° |
| 2026-05-01 10:00 | 36.37767 | 137.52903 | 36224 ft | 501 kts | 37° |
| 2026-05-01 10:00 | 36.40525 | 137.55539 | 36430 ft | 500 kts | 37° |
| 2026-05-01 10:00 | 36.43256 | 137.58152 | 36563 ft | 501 kts | 37° |
| 2026-05-01 10:00 | 36.46023 | 137.60801 | 36571 ft | 503 kts | 37° |
| 2026-05-01 10:01 | 36.51581 | 137.66130 | 36577 ft | 504 kts | 37° |
| 2026-05-01 10:01 | 36.57215 | 137.71352 | 36560 ft | 503 kts | 32° |
| 2026-05-01 10:02 | 36.63100 | 137.75964 | 36541 ft | 501 kts | 29° |
| 2026-05-01 10:02 | 36.69066 | 137.80472 | 36552 ft | 502 kts | 30° |
| 2026-05-01 10:03 | 36.75056 | 137.85061 | 36530 ft | 506 kts | 31° |
| 2026-05-01 10:03 | 36.81015 | 137.89695 | 36539 ft | 509 kts | 31° |
| 2026-05-01 10:04 | 36.87054 | 137.94419 | 36509 ft | 512 kts | 31° |
| 2026-05-01 10:04 | 36.93094 | 137.99153 | 36504 ft | 514 kts | 31° |
| 2026-05-01 10:05 | 36.99176 | 138.03925 | 36507 ft | 515 kts | 31° |
| 2026-05-01 10:05 | 37.05205 | 138.08662 | 36513 ft | 514 kts | 31° |
| 2026-05-01 10:06 | 37.11271 | 138.13438 | 36501 ft | 513 kts | 31° |
| 2026-05-01 10:06 | 37.17277 | 138.18175 | 36500 ft | 512 kts | 32° |
| 2026-05-01 10:07 | 37.23304 | 138.22938 | 36487 ft | 510 kts | 32° |
| 2026-05-01 10:07 | 37.28296 | 138.26889 | 36500 ft | 509 kts | 32° |
| 2026-05-01 10:08 | 37.37280 | 138.34018 | 36495 ft | 508 kts | 32° |
| 2026-05-01 10:09 | 37.43275 | 138.38786 | 36507 ft | 509 kts | 32° |
| 2026-05-01 10:09 | 37.49242 | 138.43541 | 36497 ft | 510 kts | 32° |
| 2026-05-01 10:10 | 37.55255 | 138.48342 | 36506 ft | 512 kts | 32° |
| 2026-05-01 10:10 | 37.64299 | 138.55581 | 36503 ft | 514 kts | 32° |
| 2026-05-01 10:11 | 37.70320 | 138.60412 | 36486 ft | 516 kts | 32° |
| 2026-05-01 10:11 | 37.76401 | 138.65300 | 36498 ft | 518 kts | 32° |
| 2026-05-01 10:12 | 37.82492 | 138.70205 | 36474 ft | 519 kts | 32° |
| 2026-05-01 10:13 | 37.91615 | 138.77573 | 36489 ft | 520 kts | 32° |
| 2026-05-01 10:13 | 37.97728 | 138.82522 | 36480 ft | 520 kts | 32° |
| 2026-05-01 10:14 | 38.06860 | 138.89935 | 36471 ft | 520 kts | 32° |
| 2026-05-01 10:14 | 38.12958 | 138.94895 | 36482 ft | 520 kts | 32° |
| 2026-05-01 10:15 | 38.19056 | 138.99861 | 36466 ft | 520 kts | 32° |
| 2026-05-01 10:15 | 38.25112 | 139.04801 | 36469 ft | 519 kts | 32° |
| 2026-05-01 10:16 | 38.31202 | 139.09781 | 36454 ft | 519 kts | 32° |
| 2026-05-01 10:17 | 38.40289 | 139.17232 | 36461 ft | 519 kts | 32° |
| 2026-05-01 10:17 | 38.49438 | 139.24757 | 36460 ft | 520 kts | 32° |
| 2026-05-01 10:18 | 38.58520 | 139.32249 | 36449 ft | 520 kts | 32° |
| 2026-05-01 10:19 | 38.64619 | 139.37294 | 36450 ft | 521 kts | 32° |
| 2026-05-01 10:19 | 38.70716 | 139.42347 | 36444 ft | 522 kts | 32° |
| 2026-05-01 10:20 | 38.79847 | 139.49935 | 36436 ft | 524 kts | 32° |
| 2026-05-01 10:20 | 38.85943 | 139.55013 | 36441 ft | 525 kts | 32° |
| 2026-05-01 10:21 | 38.95151 | 139.62706 | 36437 ft | 527 kts | 32° |
| 2026-05-01 10:22 | 39.04474 | 139.70191 | 36426 ft | 526 kts | 22° |
| 2026-05-01 10:23 | 39.14596 | 139.75607 | 36423 ft | 526 kts | 19° |
| 2026-05-01 10:23 | 39.24793 | 139.80959 | 36411 ft | 527 kts | 19° |
| 2026-05-01 10:24 | 39.31558 | 139.84610 | 36619 ft | 528 kts | 23° |
| 2026-05-01 10:24 | 39.38371 | 139.88304 | 36477 ft | 532 kts | 24° |
| 2026-05-01 10:25 | 39.52064 | 139.95752 | 36384 ft | 535 kts | 24° |
| 2026-05-01 10:26 | 39.58901 | 139.99476 | 36386 ft | 535 kts | 25° |
| 2026-05-01 10:27 | 39.72601 | 140.06978 | 36386 ft | 535 kts | 26° |
| 2026-05-01 10:28 | 39.82678 | 140.13164 | 36386 ft | 535 kts | 28° |
| 2026-05-01 10:28 | 39.92760 | 140.19518 | 36378 ft | 536 kts | 28° |
| 2026-05-01 10:29 | 40.02842 | 140.25784 | 36377 ft | 537 kts | 28° |
| 2026-05-01 10:30 | 40.16359 | 140.34200 | 36389 ft | 537 kts | 28° |
| 2026-05-01 10:31 | 40.29845 | 140.42646 | 36383 ft | 538 kts | 28° |
| 2026-05-01 10:32 | 40.39946 | 140.48995 | 36398 ft | 539 kts | 28° |
| 2026-05-01 10:33 | 40.53501 | 140.57550 | 36432 ft | 540 kts | 28° |
| 2026-05-01 10:34 | 40.63612 | 140.63957 | 36439 ft | 540 kts | 28° |
| 2026-05-01 10:34 | 40.70396 | 140.68268 | 36440 ft | 540 kts | 28° |
| 2026-05-01 10:35 | 40.80778 | 140.74030 | 36452 ft | 542 kts | 20° |
| 2026-05-01 10:35 | 40.87907 | 140.77393 | 36444 ft | 543 kts | 21° |
| 2026-05-01 10:36 | 40.98533 | 140.82662 | 36461 ft | 544 kts | 22° |
| 2026-05-01 10:37 | 41.05601 | 140.86177 | 36476 ft | 545 kts | 22° |
| 2026-05-01 10:37 | 41.16274 | 140.91488 | 36480 ft | 546 kts | 22° |
| 2026-05-01 10:38 | 41.23401 | 140.95046 | 36497 ft | 546 kts | 22° |
| 2026-05-01 10:38 | 41.30479 | 140.98587 | 36501 ft | 546 kts | 22° |
| 2026-05-01 10:39 | 41.37609 | 141.02099 | 36511 ft | 546 kts | 21° |
| 2026-05-01 10:39 | 41.41153 | 141.03822 | 36484 ft | 535 kts | 21° |
| 2026-05-01 10:39 | 41.44610 | 141.05510 | 36502 ft | 520 kts | 21° |
| 2026-05-01 10:40 | 41.47965 | 141.07157 | 36477 ft | 507 kts | 22° |
| 2026-05-01 10:40 | 41.51233 | 141.08772 | 36501 ft | 492 kts | 21° |
| 2026-05-01 10:40 | 41.57583 | 141.11924 | 36536 ft | 488 kts | 21° |
| 2026-05-01 10:41 | 41.63989 | 141.15107 | 36554 ft | 499 kts | 21° |
| 2026-05-01 10:41 | 41.70584 | 141.18390 | 36558 ft | 510 kts | 21° |
| 2026-05-01 10:42 | 41.73912 | 141.20065 | 36522 ft | 514 kts | 21° |
| 2026-05-01 10:42 | 41.77300 | 141.21778 | 35855 ft | 523 kts | 21° |
| 2026-05-01 10:42 | 41.80722 | 141.23510 | 35264 ft | 524 kts | 21° |
| 2026-05-01 10:42 | 41.84158 | 141.25249 | 34606 ft | 528 kts | 21° |
| 2026-05-01 10:43 | 41.87561 | 141.26972 | 33974 ft | 530 kts | 21° |
| 2026-05-01 10:43 | 41.91023 | 141.28730 | 33283 ft | 533 kts | 21° |
| 2026-05-01 10:43 | 41.94433 | 141.30691 | 32496 ft | 533 kts | 28° |
| 2026-05-01 10:43 | 41.97614 | 141.33206 | 31735 ft | 526 kts | 36° |
| 2026-05-01 10:44 | 42.00457 | 141.36227 | 30986 ft | 517 kts | 46° |
| 2026-05-01 10:44 | 42.03019 | 141.39577 | 30275 ft | 509 kts | 47° |
| 2026-05-01 10:44 | 42.05486 | 141.42883 | 29543 ft | 501 kts | 46° |
| 2026-05-01 10:44 | 42.07959 | 141.46148 | 28709 ft | 492 kts | 46° |
| 2026-05-01 10:45 | 42.10404 | 141.49308 | 27905 ft | 483 kts | 45° |
| 2026-05-01 10:45 | 42.12854 | 141.52376 | 27119 ft | 476 kts | 41° |
| 2026-05-01 10:45 | 42.15627 | 141.54775 | 26370 ft | 470 kts | 29° |
| 2026-05-01 10:45 | 42.18539 | 141.56877 | 25648 ft | 478 kts | 29° |
| 2026-05-01 10:46 | 42.21502 | 141.58992 | 24947 ft | 484 kts | 29° |
| 2026-05-01 10:46 | 42.24434 | 141.61105 | 24248 ft | 480 kts | 30° |
| 2026-05-01 10:46 | 42.27349 | 141.63237 | 23561 ft | 472 kts | 30° |
| 2026-05-01 10:46 | 42.30213 | 141.65357 | 22826 ft | 463 kts | 31° |
| 2026-05-01 10:47 | 42.33002 | 141.67437 | 22037 ft | 453 kts | 31° |
| 2026-05-01 10:47 | 42.35720 | 141.69471 | 21389 ft | 441 kts | 31° |
| 2026-05-01 10:47 | 42.38385 | 141.71469 | 20756 ft | 431 kts | 31° |
| 2026-05-01 10:47 | 42.40948 | 141.73391 | 20147 ft | 421 kts | 31° |
| 2026-05-01 10:48 | 42.43495 | 141.75302 | 19538 ft | 413 kts | 31° |
| 2026-05-01 10:48 | 42.45151 | 141.76544 | 19150 ft | 408 kts | 30° |
| 2026-05-01 10:48 | 42.47283 | 141.78144 | 18646 ft | 402 kts | 30° |
| 2026-05-01 10:48 | 42.49715 | 141.79970 | 18060 ft | 396 kts | 30° |
| 2026-05-01 10:49 | 42.52109 | 141.81771 | 17443 ft | 390 kts | 31° |
| 2026-05-01 10:49 | 42.54437 | 141.83524 | 16817 ft | 385 kts | 31° |
| 2026-05-01 10:49 | 42.56763 | 141.85276 | 16176 ft | 379 kts | 30° |
| 2026-05-01 10:49 | 42.59216 | 141.86520 | 15528 ft | 377 kts | 10° |
| 2026-05-01 10:50 | 42.61815 | 141.86644 | 14947 ft | 371 kts | 356° |
| 2026-05-01 10:50 | 42.64368 | 141.86390 | 14386 ft | 365 kts | 354° |
| 2026-05-01 10:50 | 42.66874 | 141.86097 | 13911 ft | 358 kts | 355° |
| 2026-05-01 10:50 | 42.69331 | 141.85816 | 13440 ft | 351 kts | 355° |
| 2026-05-01 10:51 | 42.71751 | 141.85556 | 12917 ft | 345 kts | 356° |
| 2026-05-01 10:51 | 42.74131 | 141.85315 | 12384 ft | 340 kts | 356° |
| 2026-05-01 10:51 | 42.76448 | 141.85089 | 11882 ft | 335 kts | 357° |
| 2026-05-01 10:51 | 42.78763 | 141.84866 | 11382 ft | 331 kts | 357° |
| 2026-05-01 10:52 | 42.81049 | 141.84646 | 10904 ft | 327 kts | 358° |
| 2026-05-01 10:52 | 42.83309 | 141.84319 | 10392 ft | 325 kts | 351° |
| 2026-05-01 10:52 | 42.85512 | 141.83661 | 9931 ft | 322 kts | 347° |
| 2026-05-01 10:52 | 42.87675 | 141.82913 | 9499 ft | 318 kts | 347° |
| 2026-05-01 10:53 | 42.89782 | 141.82185 | 9052 ft | 314 kts | 347° |
| 2026-05-01 10:53 | 42.91896 | 141.81479 | 8572 ft | 311 kts | 348° |
| 2026-05-01 10:53 | 42.94001 | 141.80797 | 8103 ft | 309 kts | 348° |
| 2026-05-01 10:53 | 42.96096 | 141.80129 | 7638 ft | 307 kts | 348° |
| 2026-05-01 10:54 | 42.97473 | 141.79692 | 7347 ft | 305 kts | 348° |
| 2026-05-01 10:54 | 42.99531 | 141.79021 | 6902 ft | 302 kts | 343° |
| 2026-05-01 10:54 | 43.01375 | 141.77698 | 6462 ft | 298 kts | 317° |
| 2026-05-01 10:54 | 43.02644 | 141.75551 | 6077 ft | 284 kts | 289° |
| 2026-05-01 10:55 | 43.03086 | 141.73038 | 5613 ft | 262 kts | 261° |
| 2026-05-01 10:55 | 43.02851 | 141.70700 | 5189 ft | 244 kts | 244° |
| 2026-05-01 10:55 | 43.02165 | 141.68685 | 4760 ft | 226 kts | 226° |
| 2026-05-01 10:55 | 43.01233 | 141.67003 | 4408 ft | 221 kts | 220° |
| 2026-05-01 10:56 | 43.00130 | 141.65653 | 3989 ft | 205 kts | 196° |
| 2026-05-01 10:56 | 42.98789 | 141.65298 | 3617 ft | 193 kts | 173° |
| 2026-05-01 10:56 | 42.97463 | 141.65454 | 3252 ft | 190 kts | 168° |
| 2026-05-01 10:56 | 42.96167 | 141.65707 | 2876 ft | 186 kts | 166° |
| 2026-05-01 10:57 | 42.94914 | 141.65953 | 2503 ft | 182 kts | 166° |
| 2026-05-01 10:57 | 42.93659 | 141.66185 | 2111 ft | 180 kts | 165° |
| 2026-05-01 10:57 | 42.92461 | 141.66397 | 2007 ft | 165 kts | 166° |
| 2026-05-01 10:57 | 42.91358 | 141.66593 | 2007 ft | 157 kts | 166° |
| 2026-05-01 10:58 | 42.90244 | 141.66794 | 2008 ft | 166 kts | 167° |
| 2026-05-01 10:58 | 42.89096 | 141.66998 | 2004 ft | 167 kts | 167° |
| 2026-05-01 10:58 | 42.87958 | 141.67198 | 1897 ft | 163 kts | 166° |
| 2026-05-01 10:58 | 42.86850 | 141.67391 | 1704 ft | 157 kts | 165° |
| 2026-05-01 10:59 | 42.85786 | 141.67584 | 1507 ft | 156 kts | 165° |
| 2026-05-01 10:59 | 42.84701 | 141.67776 | 1289 ft | 158 kts | 166° |
| 2026-05-01 10:59 | 42.83610 | 141.67971 | 1072 ft | 158 kts | 168° |
| 2026-05-01 10:59 | 42.82547 | 141.68156 | 843 ft | 151 kts | 169° |
| 2026-05-01 11:00 | 42.81530 | 141.68334 | 627 ft | 143 kts | 169° |
| 2026-05-01 11:00 | 42.80545 | 141.68509 | 467 ft | 143 kts | 168° |
| 2026-05-01 11:00 | 42.79567 | 141.68673 | 296 ft | 141 kts | 168° |
| 2026-05-01 11:00 | 42.78610 | 141.68847 | 102 ft | 132 kts | 169° |
| 2026-05-01 11:01 | 42.77772 | 141.69000 | 77 ft | 105 kts | 173° |
| 2026-05-01 11:01 | 42.77315 | 141.69065 | 81 ft | 34 kts | 188° |
| 2026-05-01 11:01 | 42.77142 | 141.69002 | 80 ft | 7 kts | 203° |
| 2026-05-01 11:01 | 42.77105 | 141.68965 | 72 ft | 7 kts | 237° |
| 2026-05-01 11:02 | 42.77107 | 141.68908 | 70 ft | 6 kts | 309° |
| 2026-05-01 11:02 | 42.77148 | 141.68884 | 78 ft | 6 kts | 347° |
| 2026-05-01 11:02 | 42.77191 | 141.68874 | 70 ft | 6 kts | 351° |
| 2026-05-01 11:02 | 42.77235 | 141.68865 | 75 ft | 7 kts | 352° |
| 2026-05-01 11:03 | 42.77293 | 141.68854 | 70 ft | 10 kts | 352° |
| 2026-05-01 11:03 | 42.77372 | 141.68841 | 76 ft | 13 kts | 353° |
| 2026-05-01 11:03 | 42.77468 | 141.68825 | 71 ft | 15 kts | 353° |
| 2026-05-01 11:03 | 42.77579 | 141.68806 | 69 ft | 17 kts | 353° |
| 2026-05-01 11:04 | 42.77702 | 141.68785 | 74 ft | 19 kts | 353° |
| 2026-05-01 11:04 | 42.77842 | 141.68761 | 76 ft | 22 kts | 352° |
| 2026-05-01 11:04 | 42.77985 | 141.68701 | 75 ft | 22 kts | 316° |
| 2026-05-01 11:04 | 42.78075 | 141.68544 | 78 ft | 21 kts | 328° |
| 2026-05-01 11:05 | 42.78183 | 141.68453 | 73 ft | 11 kts | 327° |
| 2026-05-01 11:05 | 42.78241 | 141.68386 | 76 ft | 11 kts | 315° |
| 2026-05-01 11:05 | 42.78286 | 141.68307 | 78 ft | 11 kts | 301° |
| 2026-05-01 11:05 | 42.78336 | 141.68241 | 70 ft | 10 kts | 340° |
| 2026-05-01 11:06 | 42.78398 | 141.68200 | 76 ft | 10 kts | 326° |
| 2026-05-01 11:06 | 42.78454 | 141.68148 | 73 ft | 10 kts | 324° |
| 2026-05-01 11:06 | 42.78496 | 141.68105 | 73 ft | 4 kts | 321° |